createdAt,value
2016-08-18T00:00:33.194Z,15.11
2016-08-18T00:01:33.181Z,15.09
2016-08-18T00:02:33.882Z,14.99
2016-08-18T00:03:33.867Z,15.02
2016-08-18T00:04:34.568Z,14.95
2016-08-18T00:05:33.850Z,14.88
2016-08-18T00:06:33.846Z,14.98
2016-08-18T00:07:33.830Z,14.83
2016-08-18T00:08:34.538Z,14.87
2016-08-18T00:09:33.106Z,14.83
2016-08-18T00:10:33.809Z,14.84
2016-08-18T00:11:33.794Z,14.8
2016-08-18T00:12:33.784Z,14.84
2016-08-18T00:13:33.777Z,14.72
2016-08-18T00:14:33.064Z,14.75
2016-08-18T00:15:34.460Z,14.75
2016-08-18T00:16:33.041Z,14.74
2016-08-18T00:17:34.440Z,14.81
2016-08-18T00:18:34.435Z,14.72
2016-08-18T00:19:33.008Z,14.67
2016-08-18T00:20:33.708Z,14.72
2016-08-18T00:21:32.995Z,14.72
2016-08-18T00:22:33.685Z,14.75
2016-08-18T00:23:34.386Z,14.69
2016-08-18T00:24:33.674Z,14.75
2016-08-18T00:25:33.664Z,14.75
2016-08-18T00:26:32.943Z,14.68
2016-08-18T00:27:32.933Z,14.64
2016-08-18T00:28:33.630Z,14.67
2016-08-18T00:29:33.621Z,14.71
2016-08-18T00:30:32.903Z,14.67
2016-08-18T00:31:32.896Z,14.69
2016-08-18T00:32:33.588Z,14.67
2016-08-18T00:33:34.289Z,14.65
2016-08-18T00:34:32.861Z,14.67
2016-08-18T00:35:32.852Z,14.68
2016-08-18T00:36:33.547Z,14.6
2016-08-18T00:37:33.540Z,14.54
2016-08-18T00:38:32.819Z,14.54
2016-08-18T00:39:32.813Z,14.6
2016-08-18T00:40:33.511Z,14.52
2016-08-18T00:41:33.515Z,14.5
2016-08-18T00:42:33.487Z,14.49
2016-08-18T00:43:33.483Z,14.5
2016-08-18T00:44:32.760Z,14.5
2016-08-18T00:45:33.462Z,14.42
2016-08-18T00:46:33.450Z,14.43
2016-08-18T00:47:33.442Z,14.47
2016-08-18T00:48:32.723Z,14.34
2016-08-18T00:49:33.423Z,14.34
2016-08-18T00:50:33.410Z,14.31
2016-08-18T00:51:34.107Z,14.31
2016-08-18T00:52:32.684Z,14.28
2016-08-18T00:54:05.469Z,14.19
2016-08-18T00:54:32.662Z,14.31
2016-08-18T00:55:33.363Z,14.24
2016-08-18T00:56:32.644Z,14.17
2016-08-18T00:57:33.335Z,14.19
2016-08-18T00:58:32.620Z,14.17
2016-08-18T00:59:33.314Z,14.14
2016-08-18T01:00:32.599Z,14.13
2016-08-18T01:01:33.294Z,14.17
2016-08-18T01:02:32.579Z,14.19
2016-08-18T01:03:33.284Z,14.19
2016-08-18T01:04:33.974Z,14.14
2016-08-18T01:05:32.550Z,14.06
2016-08-18T01:26:51.573Z,13.65
2016-08-18T01:27:17.160Z,13.71
2016-08-18T01:28:16.449Z,13.59
2016-08-18T01:29:17.141Z,13.58
2016-08-18T01:30:16.429Z,13.59
2016-08-18T01:31:16.412Z,13.58
2016-08-18T01:32:17.815Z,13.58
2016-08-18T01:33:17.096Z,13.55
2016-08-18T01:34:17.793Z,13.52
2016-08-18T02:10:52.170Z,13.21
2016-08-18T02:11:51.443Z,13.21
2016-08-18T02:12:52.139Z,13.21
2016-08-18T02:13:52.152Z,13.17
2016-08-18T02:14:51.410Z,13.21
2016-08-18T02:15:51.402Z,13.17
2016-08-18T02:16:52.102Z,13.18
2016-08-18T02:17:51.381Z,13.21
2016-08-18T02:18:52.070Z,13.2
2016-08-18T02:19:52.064Z,13.14
2016-08-18T02:20:51.343Z,13.25
2016-08-18T02:21:52.046Z,13.24
2016-08-18T02:22:52.736Z,13.12
2016-08-18T02:23:51.316Z,13.2
2016-08-18T02:24:52.011Z,13.14
2016-08-18T02:25:52.711Z,13.07
2016-08-18T02:26:52.003Z,13.14
2016-08-18T02:27:51.979Z,12.99
2016-08-18T02:28:51.264Z,13
2016-08-18T02:29:51.967Z,12.92
2016-08-18T02:30:51.953Z,13.02
2016-08-18T02:31:51.230Z,12.99
2016-08-18T02:32:51.952Z,13.02
2016-08-18T02:33:52.624Z,12.96
2016-08-18T02:34:51.198Z,12.89
2016-08-18T02:35:51.890Z,12.85
2016-08-18T02:36:51.886Z,12.81
2016-08-18T02:37:51.868Z,12.82
2016-08-18T02:38:51.862Z,12.84
2016-08-18T02:39:51.139Z,12.84
2016-08-18T02:40:51.131Z,12.81
2016-08-18T02:41:51.830Z,12.78
2016-08-18T02:42:52.525Z,12.82
2016-08-18T02:43:51.805Z,12.82
2016-08-18T02:44:51.092Z,12.75
2016-08-18T02:45:51.077Z,12.74
2016-08-18T02:46:51.067Z,12.67
2016-08-18T02:47:52.466Z,12.7
2016-08-18T02:48:51.753Z,12.69
2016-08-18T02:49:51.738Z,12.64
2016-08-18T02:50:51.731Z,12.67
2016-08-18T02:51:51.718Z,12.66
2016-08-18T02:52:52.417Z,12.7
2016-08-18T02:53:51.703Z,12.64
2016-08-18T02:54:51.891Z,12.69
2016-08-18T02:55:51.672Z,12.66
2016-08-18T02:56:51.670Z,12.62
2016-08-18T02:57:50.946Z,12.52
2016-08-18T02:58:52.355Z,12.56
2016-08-18T02:59:51.639Z,12.51
2016-08-18T03:00:51.619Z,12.6
2016-08-18T03:01:50.907Z,12.49
2016-08-18T03:02:51.599Z,12.48
2016-08-18T03:03:50.884Z,12.51
2016-08-18T03:04:51.579Z,12.51
2016-08-18T03:05:50.858Z,12.46
2016-08-18T03:06:51.565Z,12.51
2016-08-18T03:07:50.838Z,12.39
2016-08-18T03:08:50.827Z,12.46
2016-08-18T03:09:50.820Z,12.41
2016-08-18T03:10:50.826Z,12.33
2016-08-18T03:11:50.794Z,12.3
2016-08-18T03:12:52.200Z,12.33
2016-08-18T03:13:50.768Z,12.37
2016-08-18T03:14:50.767Z,12.34
2016-08-18T03:15:50.750Z,12.46
2016-08-18T03:16:51.445Z,12.38
2016-08-18T03:17:51.433Z,12.46
2016-08-18T03:18:50.718Z,12.42
2016-08-18T03:19:51.417Z,12.44
2016-08-18T03:20:51.407Z,12.39
2016-08-18T03:21:52.101Z,12.49
2016-08-18T03:22:51.380Z,12.39
2016-08-18T03:33:10.059Z,12.34
2016-08-18T03:33:20.976Z,12.37
2016-08-18T03:34:20.942Z,12.44
2016-08-18T03:35:20.938Z,12.42
2016-08-18T03:36:20.925Z,12.44
2016-08-18T03:37:20.211Z,12.39
2016-08-18T03:38:20.893Z,12.38
2016-08-18T03:39:20.893Z,12.33
2016-08-18T03:40:20.370Z,12.29
2016-08-18T03:41:20.226Z,12.24
2016-08-18T03:42:20.859Z,12.2
2016-08-18T03:43:20.138Z,12.2
2016-08-18T03:46:05.819Z,12.16
2016-08-18T03:47:05.106Z,12.19
2016-08-18T03:48:05.090Z,12.13
2016-08-18T03:49:05.100Z,12.12
2016-08-18T03:50:05.066Z,12.06
2016-08-18T03:51:05.068Z,12.13
2016-08-18T03:52:05.755Z,12.09
2016-08-18T03:53:05.043Z,12.02
2016-08-18T03:54:06.440Z,12.06
2016-08-18T03:55:05.720Z,12.06
2016-08-18T03:56:05.005Z,12.08
2016-08-18T03:57:05.003Z,11.99
2016-08-18T03:58:04.983Z,12.05
2016-08-18T03:59:05.678Z,11.99
2016-08-18T04:00:05.687Z,11.99
2016-08-18T04:01:05.656Z,11.9
2016-08-18T04:02:06.350Z,11.89
2016-08-18T04:03:06.340Z,11.87
2016-08-18T04:04:05.620Z,11.86
2016-08-18T04:05:06.320Z,11.94
2016-08-18T04:06:04.894Z,11.96
2016-08-18T04:07:05.585Z,11.94
2016-08-18T04:08:06.287Z,11.89
2016-08-18T04:09:06.268Z,11.89
2016-08-18T04:10:04.849Z,11.85
2016-08-18T04:11:05.538Z,11.78
2016-08-18T04:12:05.530Z,11.77
2016-08-18T04:13:05.520Z,11.8
2016-08-18T04:14:06.214Z,11.78
2016-08-18T04:15:05.493Z,11.83
2016-08-18T04:16:06.192Z,11.62
2016-08-18T04:17:06.178Z,11.7
2016-08-18T04:18:05.461Z,11.67
2016-08-18T04:19:04.753Z,11.65
2016-08-18T04:20:05.440Z,11.65
2016-08-18T04:21:04.720Z,11.82
2016-08-18T04:22:05.420Z,11.77
2016-08-18T04:23:04.706Z,11.77
2016-08-18T04:24:04.887Z,11.85
2016-08-18T04:25:05.381Z,11.77
2016-08-18T04:26:05.370Z,11.75
2016-08-18T04:27:04.644Z,11.77
2016-08-18T04:28:05.353Z,11.87
2016-08-18T04:29:06.047Z,11.86
2016-08-18T04:30:05.327Z,11.89
2016-08-18T04:31:05.314Z,11.86
2016-08-18T04:32:05.301Z,11.87
2016-08-18T04:33:04.590Z,11.89
2016-08-18T04:34:05.275Z,11.86
2016-08-18T04:35:05.974Z,11.83
2016-08-18T04:36:05.252Z,11.8
2016-08-18T04:37:05.248Z,11.8
2016-08-18T04:38:05.252Z,11.89
2016-08-18T04:39:04.510Z,11.85
2016-08-18T04:40:04.500Z,11.77
2016-08-18T04:41:05.195Z,11.82
2016-08-18T04:42:05.889Z,11.78
2016-08-18T04:43:05.185Z,11.85
2016-08-18T04:44:05.868Z,11.82
2016-08-18T04:45:05.151Z,11.9
2016-08-18T04:46:05.843Z,11.78
2016-08-18T04:47:04.421Z,11.8
2016-08-18T04:48:05.122Z,11.78
2016-08-18T04:49:05.099Z,11.74
2016-08-18T04:50:05.109Z,11.74
2016-08-18T04:51:04.374Z,11.8
2016-08-18T04:52:05.073Z,11.68
2016-08-18T04:53:05.059Z,11.71
2016-08-18T04:54:04.346Z,11.7
2016-08-18T04:55:05.035Z,11.71
2016-08-18T04:56:04.318Z,11.67
2016-08-18T04:57:05.014Z,11.64
2016-08-18T04:58:04.295Z,11.74
2016-08-18T04:59:04.282Z,11.77
2016-08-18T05:00:04.276Z,11.75
2016-08-18T05:01:04.965Z,11.82
2016-08-18T05:02:04.957Z,11.82
2016-08-18T05:03:04.237Z,11.77
2016-08-18T05:04:04.931Z,11.75
2016-08-18T05:05:04.220Z,11.85
2016-08-18T05:06:04.916Z,11.93
2016-08-18T05:07:04.192Z,11.86
2016-08-18T05:08:04.185Z,11.93
2016-08-18T05:09:05.583Z,11.86
2016-08-18T05:10:04.868Z,11.87
2016-08-18T05:11:04.146Z,11.89
2016-08-18T05:12:05.593Z,11.93
2016-08-18T05:13:04.835Z,11.97
2016-08-18T05:14:04.114Z,11.96
2016-08-18T05:15:04.811Z,11.93
2016-08-18T05:16:04.089Z,12.05
2016-08-18T05:17:04.788Z,12.09
2016-08-18T05:18:04.077Z,12.09
2016-08-18T05:19:04.760Z,12.11
2016-08-18T05:20:04.747Z,12.06
2016-08-18T05:21:05.447Z,12.06
2016-08-18T05:22:04.730Z,12.08
2016-08-18T05:23:04.012Z,12.12
2016-08-18T05:24:05.413Z,12.2
2016-08-18T05:25:05.403Z,12.13
2016-08-18T05:26:05.398Z,12.24
2016-08-18T05:27:03.968Z,12.21
2016-08-18T05:28:04.658Z,12.23
2016-08-18T05:29:03.945Z,12.24
2016-08-18T05:30:04.638Z,12.29
2016-08-18T05:31:04.636Z,12.29
2016-08-18T05:32:03.908Z,12.31
2016-08-18T05:33:03.899Z,12.41
2016-08-18T05:34:04.595Z,12.44
2016-08-18T05:35:03.875Z,12.38
2016-08-18T05:36:04.569Z,12.49
2016-08-18T05:37:04.568Z,12.44
2016-08-18T05:38:04.546Z,12.57
2016-08-18T05:39:05.248Z,12.56
2016-08-18T05:40:05.238Z,12.51
2016-08-18T05:41:03.817Z,12.56
2016-08-18T05:42:05.212Z,12.66
2016-08-18T05:43:03.781Z,12.66
2016-08-18T05:44:03.773Z,12.7
2016-08-18T05:45:04.469Z,12.71
2016-08-18T05:46:03.754Z,12.78
2016-08-18T05:47:05.156Z,12.71
2016-08-18T05:48:04.440Z,12.75
2016-08-18T05:49:04.429Z,12.89
2016-08-18T05:50:04.426Z,12.89
2016-08-18T05:51:04.415Z,12.87
2016-08-18T05:52:05.254Z,12.92
2016-08-18T05:53:04.380Z,12.92
2016-08-18T05:54:05.081Z,12.99
2016-08-18T05:55:04.369Z,12.99
2016-08-18T05:56:04.361Z,13
2016-08-18T05:57:04.376Z,13.14
2016-08-18T05:58:04.329Z,13.2
2016-08-18T05:59:04.317Z,13.21
2016-08-18T06:00:04.313Z,13.21
2016-08-18T06:01:04.297Z,13.09
2016-08-18T06:02:04.284Z,13.21
2016-08-18T06:03:03.568Z,13.24
2016-08-18T06:04:03.570Z,13.17
2016-08-18T06:05:04.249Z,13.25
2016-08-18T06:06:04.237Z,13.3
2016-08-18T06:07:03.524Z,13.25
2016-08-18T06:08:04.924Z,13.36
2016-08-18T06:09:03.747Z,13.4
2016-08-18T06:10:05.170Z,13.43
2016-08-18T06:11:04.189Z,13.41
2016-08-18T06:12:04.177Z,13.43
2016-08-18T06:13:04.172Z,13.47
2016-08-18T06:14:04.863Z,13.49
2016-08-18T06:15:03.434Z,13.67
2016-08-18T06:16:03.427Z,13.62
2016-08-18T06:17:04.831Z,13.62
2016-08-18T06:18:03.588Z,13.7
2016-08-18T06:19:04.819Z,13.76
2016-08-18T06:20:04.820Z,13.76
2016-08-18T06:21:04.107Z,13.81
2016-08-18T06:22:04.086Z,13.83
2016-08-18T06:23:04.095Z,13.79
2016-08-18T06:24:04.051Z,13.79
2016-08-18T06:25:04.759Z,13.8
2016-08-18T06:26:04.033Z,13.84
2016-08-18T06:27:04.023Z,13.92
2016-08-18T06:28:04.011Z,13.87
2016-08-18T06:29:03.997Z,13.89
2016-08-18T06:30:03.279Z,13.92
2016-08-18T06:31:03.976Z,14.04
2016-08-18T06:32:03.965Z,14.01
2016-08-18T06:33:04.664Z,14.1
2016-08-18T06:34:04.668Z,14.09
2016-08-18T06:35:03.224Z,14.13
2016-08-18T06:36:03.940Z,14.24
2016-08-18T06:37:04.626Z,14.2
2016-08-18T06:38:04.610Z,14.2
2016-08-18T06:39:03.896Z,14.29
2016-08-18T06:40:03.355Z,14.32
2016-08-18T06:41:04.582Z,14.31
2016-08-18T06:42:03.155Z,14.31
2016-08-18T06:43:03.853Z,14.32
2016-08-18T06:44:03.870Z,14.37
2016-08-18T06:45:04.556Z,14.38
2016-08-18T06:46:03.175Z,14.47
2016-08-18T06:47:04.514Z,14.5
2016-08-18T06:48:03.095Z,14.53
2016-08-18T06:49:04.500Z,14.53
2016-08-18T06:50:03.079Z,14.52
2016-08-18T06:51:03.771Z,14.69
2016-08-18T06:52:04.532Z,14.8
2016-08-18T06:53:03.755Z,14.8
2016-08-18T06:54:03.038Z,14.84
2016-08-18T06:55:03.736Z,14.93
2016-08-18T06:56:04.433Z,14.99
2016-08-18T06:57:03.013Z,14.98
2016-08-18T06:58:03.001Z,15.05
2016-08-18T06:59:04.402Z,15.19
2016-08-18T07:00:03.688Z,15.09
2016-08-18T07:01:04.396Z,15.05
2016-08-18T07:02:03.659Z,15.13
2016-08-18T07:03:03.659Z,15.2
2016-08-18T07:04:03.643Z,15.28
2016-08-18T07:05:03.831Z,15.3
2016-08-18T07:06:02.922Z,15.21
2016-08-18T07:07:03.616Z,15.3
2016-08-18T07:08:02.901Z,15.35
2016-08-18T07:09:02.889Z,15.38
2016-08-18T07:10:03.933Z,15.41
2016-08-18T07:11:02.870Z,15.46
2016-08-18T07:12:02.862Z,15.42
2016-08-18T07:13:03.554Z,15.48
2016-08-18T07:14:03.853Z,15.48
2016-08-18T07:15:04.265Z,15.48
2016-08-18T07:16:03.529Z,15.49
2016-08-18T07:17:03.518Z,15.48
2016-08-18T07:18:02.800Z,15.6
2016-08-18T07:19:04.206Z,15.61
2016-08-18T07:20:02.781Z,15.66
2016-08-18T07:21:03.481Z,15.66
2016-08-18T07:22:03.468Z,15.75
2016-08-18T07:23:02.755Z,15.68
2016-08-18T07:24:03.461Z,15.74
2016-08-18T07:25:03.467Z,15.76
2016-08-18T07:26:03.430Z,15.81
2016-08-18T07:27:04.131Z,15.84
2016-08-18T07:28:02.714Z,15.86
2016-08-18T07:29:03.413Z,15.97
2016-08-18T07:30:03.395Z,16.06
2016-08-18T07:31:03.383Z,16
2016-08-18T07:32:02.676Z,16.06
2016-08-18T07:33:03.366Z,16.12
2016-08-18T07:34:03.359Z,16.12
2016-08-18T07:35:03.368Z,16.15
2016-08-18T07:36:03.348Z,16.22
2016-08-18T07:37:03.338Z,16.26
2016-08-18T07:38:03.325Z,16.34
2016-08-18T07:39:03.314Z,16.38
2016-08-18T07:40:04.038Z,16.44
2016-08-18T07:41:04.015Z,16.38
2016-08-18T07:42:02.590Z,16.53
2016-08-18T07:43:03.983Z,16.55
2016-08-18T07:44:03.968Z,16.49
2016-08-18T07:45:03.967Z,16.6
2016-08-18T07:46:02.542Z,16.59
2016-08-18T07:47:02.536Z,16.62
2016-08-18T07:48:03.233Z,16.75
2016-08-18T07:49:02.517Z,16.7
2016-08-18T07:50:02.591Z,16.77
2016-08-18T07:51:09.606Z,16.68
2016-08-18T07:52:03.231Z,16.78
2016-08-18T07:53:03.189Z,16.93
2016-08-18T07:54:03.902Z,16.98
2016-08-18T07:55:02.481Z,16.93
2016-08-18T07:56:03.160Z,16.99
2016-08-18T07:57:02.442Z,17.1
2016-08-18T07:58:03.150Z,17.14
2016-08-18T07:59:03.877Z,17.18
2016-08-18T08:00:02.418Z,17.26
2016-08-18T08:01:02.420Z,17.38
2016-08-18T08:02:03.112Z,17.33
2016-08-18T08:03:02.395Z,17.4
2016-08-18T08:04:02.423Z,17.51
2016-08-18T08:05:03.801Z,17.53
2016-08-18T08:06:03.070Z,17.67
2016-08-18T08:07:03.070Z,17.64
2016-08-18T08:08:03.052Z,17.67
2016-08-18T08:09:02.345Z,17.78
2016-08-18T08:10:03.044Z,17.84
2016-08-18T08:11:03.049Z,17.84
2016-08-18T08:12:02.528Z,17.87
2016-08-18T08:13:03.735Z,18.02
2016-08-18T08:14:03.011Z,18
2016-08-18T08:15:02.996Z,18.07
2016-08-18T08:16:02.284Z,18.17
2016-08-18T08:17:03.688Z,18.13
2016-08-18T08:18:03.743Z,18.36
2016-08-18T08:19:02.304Z,19.14
2016-08-18T08:20:03.729Z,20.46
2016-08-18T08:21:02.254Z,21.61
2016-08-18T08:22:02.955Z,22.54
2016-08-18T08:23:02.948Z,23.35
2016-08-18T08:24:02.483Z,24.13
2016-08-18T08:25:02.271Z,24.6
2016-08-18T08:26:03.055Z,25.19
2016-08-18T08:27:02.226Z,25.74
2016-08-18T08:28:02.211Z,25.94
2016-08-18T08:29:03.615Z,26.37
2016-08-18T08:30:02.910Z,26.72
2016-08-18T08:31:02.900Z,26.87
2016-08-18T08:32:02.902Z,26.76
2016-08-18T08:33:02.978Z,26.36
2016-08-18T08:34:02.210Z,25.74
2016-08-18T08:35:04.655Z,25.25
2016-08-18T08:36:03.340Z,24.94
2016-08-18T08:37:03.363Z,24.77
2016-08-18T08:38:03.085Z,24.79
2016-08-18T08:39:02.597Z,24.79
2016-08-18T08:40:03.914Z,24.94
2016-08-18T08:41:03.016Z,25.49
2016-08-18T08:42:03.491Z,25.93
2016-08-18T08:43:02.869Z,26.02
2016-08-18T08:44:02.874Z,25.93
2016-08-18T08:45:03.569Z,25.79
2016-08-18T08:46:02.942Z,25.54
2016-08-18T08:47:03.561Z,25.19
2016-08-18T08:48:02.879Z,24.97
2016-08-18T08:49:02.835Z,24.6
2016-08-18T08:50:02.132Z,24.45
2016-08-18T08:51:02.826Z,24.17
2016-08-18T08:52:03.621Z,24.13
2016-08-18T08:53:02.815Z,24.05
2016-08-18T08:54:02.251Z,24.17
2016-08-18T08:55:02.349Z,24.07
2016-08-18T08:56:02.916Z,24.14
2016-08-18T08:57:02.800Z,24.19
2016-08-18T08:58:02.094Z,24
2016-08-18T08:59:02.795Z,23.85
2016-08-18T09:00:02.822Z,23.61
2016-08-18T09:01:03.431Z,23.42
2016-08-18T09:02:02.799Z,23.4
2016-08-18T09:03:03.503Z,23.39
2016-08-18T09:04:03.488Z,23.34
2016-08-18T09:05:03.470Z,23.27
2016-08-18T09:06:02.407Z,22.96
2016-08-18T09:07:02.776Z,22.71
2016-08-18T09:08:02.748Z,22.54
2016-08-18T09:09:02.759Z,22.46
2016-08-18T09:10:02.740Z,22.34
2016-08-18T09:11:02.737Z,22.31
2016-08-18T09:12:02.725Z,22.62
2016-08-18T09:13:02.014Z,22.83
2016-08-18T09:14:03.426Z,22.99
2016-08-18T09:15:03.417Z,23.2
2016-08-18T09:16:02.835Z,23.32
2016-08-18T09:17:02.705Z,23.39
2016-08-18T09:18:02.698Z,23.26
2016-08-18T09:19:01.982Z,23.2
2016-08-18T09:20:03.595Z,22.96
2016-08-18T09:21:03.794Z,22.87
2016-08-18T09:22:01.967Z,22.62
2016-08-18T09:23:02.907Z,22.46
2016-08-18T09:24:03.397Z,22.31
2016-08-18T09:25:03.507Z,22.32
2016-08-18T09:26:02.676Z,22.16
2016-08-18T09:27:02.015Z,22.19
2016-08-18T09:28:02.740Z,22.14
2016-08-18T09:29:02.662Z,22.06
2016-08-18T09:30:01.937Z,22.02
2016-08-18T09:31:04.882Z,22.09
2016-08-18T09:32:01.923Z,21.98
2016-08-18T09:33:03.196Z,22.01
2016-08-18T09:34:02.635Z,22.09
2016-08-18T09:35:03.389Z,22.14
2016-08-18T09:36:02.714Z,22.06
2016-08-18T09:37:02.673Z,22.1
2016-08-18T09:38:03.405Z,22.07
2016-08-18T09:39:03.123Z,22.07
2016-08-18T09:40:03.169Z,22.09
2016-08-18T09:41:01.880Z,21.98
2016-08-18T09:42:02.591Z,22.02
2016-08-18T09:43:02.653Z,22.1
2016-08-18T09:44:02.577Z,22.09
2016-08-18T09:45:02.924Z,22.09
2016-08-18T09:46:01.920Z,22.07
2016-08-18T09:47:02.563Z,22.02
2016-08-18T09:48:03.260Z,22.07
2016-08-18T09:49:02.543Z,22.07
2016-08-18T09:50:03.331Z,22.07
2016-08-18T09:51:02.594Z,21.98
2016-08-18T09:52:02.030Z,22.06
2016-08-18T09:53:02.537Z,22.07
2016-08-18T09:54:03.424Z,22.09
2016-08-18T09:55:03.037Z,22.1
2016-08-18T09:56:02.785Z,22.1
2016-08-18T09:57:02.518Z,22.23
2016-08-18T09:58:02.490Z,22.19
2016-08-18T09:59:02.481Z,22.27
2016-08-18T10:00:03.079Z,22.29
2016-08-18T10:01:01.768Z,22.32
2016-08-18T10:02:02.475Z,22.37
2016-08-18T10:03:02.540Z,22.32
2016-08-18T10:04:02.457Z,22.34
2016-08-18T10:05:03.889Z,22.39
2016-08-18T10:06:02.441Z,22.47
2016-08-18T10:07:02.477Z,22.56
2016-08-18T10:08:02.471Z,22.56
2016-08-18T10:09:02.425Z,22.54
2016-08-18T10:10:03.135Z,22.56
2016-08-18T10:11:02.433Z,22.59
2016-08-18T10:12:01.705Z,22.56
2016-08-18T10:13:02.668Z,22.6
2016-08-18T10:14:02.406Z,22.59
2016-08-18T10:15:02.391Z,22.71
2016-08-18T10:16:02.386Z,22.84
2016-08-18T10:17:02.380Z,22.96
2016-08-18T10:18:02.375Z,23.02
2016-08-18T10:19:02.378Z,23.14
2016-08-18T10:20:02.773Z,23.17
2016-08-18T10:21:02.355Z,23.19
2016-08-18T10:22:02.352Z,23.15
2016-08-18T10:23:01.924Z,23.15
2016-08-18T10:24:02.336Z,23.11
2016-08-18T10:25:02.337Z,23.15
2016-08-18T10:26:02.334Z,23.2
2016-08-18T10:27:02.334Z,23.27
2016-08-18T10:28:03.021Z,23.29
2016-08-18T10:29:01.798Z,23.23
2016-08-18T10:30:02.310Z,23.14
2016-08-18T10:31:02.309Z,23.11
2016-08-18T10:32:03.003Z,23.14
2016-08-18T10:33:02.998Z,23.17
2016-08-18T10:34:02.288Z,23.26
2016-08-18T10:35:02.995Z,23.35
2016-08-18T10:36:01.571Z,23.53
2016-08-18T10:37:01.617Z,23.72
2016-08-18T10:38:02.969Z,23.85
2016-08-18T10:39:01.543Z,24.08
2016-08-18T10:40:01.569Z,24.27
2016-08-18T10:41:02.254Z,24.77
2016-08-18T10:42:03.048Z,25.38
2016-08-18T10:43:03.001Z,25.75
2016-08-18T10:44:01.527Z,26.08
2016-08-18T10:45:02.230Z,26.31
2016-08-18T10:46:02.302Z,26.61
2016-08-18T10:47:02.427Z,26.58
2016-08-18T10:48:01.510Z,26.59
2016-08-18T10:49:01.505Z,26.96
2016-08-18T10:50:02.229Z,27.02
2016-08-18T10:51:01.502Z,27.04
2016-08-18T10:52:01.510Z,26.98
2016-08-18T10:53:01.506Z,27.29
2016-08-18T10:54:01.502Z,27.64
2016-08-18T10:55:02.219Z,28.13
2016-08-18T10:56:02.216Z,28.38
2016-08-18T10:57:02.939Z,28.62
2016-08-18T10:58:02.209Z,28.91
2016-08-18T10:59:02.212Z,29.22
2016-08-18T11:00:02.942Z,29.45
2016-08-18T11:01:01.508Z,29.5
2016-08-18T11:02:01.524Z,29.47
2016-08-18T11:03:02.219Z,29.55
2016-08-18T11:04:01.511Z,29.6
2016-08-18T11:05:01.527Z,29.56
2016-08-18T11:06:01.538Z,29.68
2016-08-18T11:07:01.523Z,29.82
2016-08-18T11:08:02.239Z,29.92
2016-08-18T11:09:02.236Z,30.07
2016-08-18T11:10:02.435Z,30.08
2016-08-18T11:11:01.530Z,30.12
2016-08-18T11:12:01.533Z,30.33
2016-08-18T11:13:02.241Z,30.33
2016-08-18T11:14:02.258Z,30.46
2016-08-18T11:15:02.956Z,30.65
2016-08-18T11:16:02.257Z,30.67
2016-08-18T11:17:02.555Z,30.76
2016-08-18T11:18:01.555Z,31.01
2016-08-18T11:19:02.976Z,30.96
2016-08-18T11:20:01.568Z,31.06
2016-08-18T11:21:01.563Z,30.98
2016-08-18T11:22:02.274Z,31.15
2016-08-18T11:23:02.310Z,31.38
2016-08-18T11:24:01.576Z,31.26
2016-08-18T11:25:03.002Z,31.46
2016-08-18T11:26:03.167Z,31.65
2016-08-18T11:27:02.307Z,31.91
2016-08-18T11:28:02.394Z,32.07
2016-08-18T11:29:02.360Z,32.2
2016-08-18T11:30:03.022Z,32.48
2016-08-18T11:31:01.614Z,32.67
2016-08-18T11:32:01.637Z,32.88
2016-08-18T11:33:01.622Z,33.04
2016-08-18T11:34:02.340Z,33.04
2016-08-18T11:35:03.393Z,32.91
2016-08-18T11:36:02.354Z,32.92
2016-08-18T11:37:01.645Z,33.14
2016-08-18T11:38:01.653Z,33.31
2016-08-18T11:39:02.360Z,33.43
2016-08-18T11:40:02.369Z,33.61
2016-08-18T11:41:02.380Z,33.79
2016-08-18T11:42:03.343Z,33.87
2016-08-18T11:43:02.385Z,33.97
2016-08-18T11:44:02.394Z,33.9
2016-08-18T11:45:02.897Z,33.86
2016-08-18T11:46:02.419Z,33.92
2016-08-18T11:47:02.472Z,34.02
2016-08-18T11:48:02.044Z,33.95
2016-08-18T11:49:09.801Z,33.92
2016-08-18T11:50:03.812Z,33.95
2016-08-18T11:51:01.781Z,34.19
2016-08-18T11:52:02.451Z,34.34
2016-08-18T11:53:02.451Z,34.36
2016-08-18T11:54:02.452Z,34.46
2016-08-18T11:55:02.456Z,34.53
2016-08-18T11:56:01.754Z,34.51
2016-08-18T11:57:02.471Z,34.38
2016-08-18T12:12:04.254Z,35.57
2016-08-18T12:13:04.254Z,35.54
2016-08-18T12:14:04.258Z,35.51
2016-08-18T12:15:05.581Z,35.64
2016-08-18T12:16:05.580Z,35.67
2016-08-18T12:17:04.883Z,35.76
2016-08-18T12:18:05.600Z,35.86
2016-08-18T12:19:04.915Z,35.86
2016-08-18T12:20:04.905Z,35.88
2016-08-18T12:21:05.627Z,36.08
2016-08-18T12:22:05.625Z,36.07
2016-08-18T12:23:05.842Z,36.35
2016-08-18T12:24:06.355Z,36.43
2016-08-18T12:25:04.941Z,36.57
2016-08-18T12:26:04.948Z,36.52
2016-08-18T12:27:05.666Z,36.03
2016-08-18T12:28:05.690Z,36.03
2016-08-18T12:29:05.680Z,36.33
2016-08-18T12:30:05.689Z,36.35
2016-08-18T12:31:06.402Z,36.46
2016-08-18T12:32:05.704Z,36.52
2016-08-18T12:33:06.417Z,36.58
2016-08-18T12:34:05.012Z,36.58
2016-08-18T12:35:05.720Z,36.48
2016-08-18T12:36:05.743Z,36.29
2016-08-18T12:37:05.735Z,36.04
2016-08-18T12:38:05.742Z,36.01
2016-08-18T12:39:05.754Z,36.23
2016-08-18T12:40:05.756Z,36.3
2016-08-18T12:41:05.056Z,36.43
2016-08-18T12:42:05.769Z,36.61
2016-08-18T12:43:05.770Z,36.7
2016-08-18T12:44:05.791Z,36.61
2016-08-18T12:45:05.084Z,36.56
2016-08-18T12:46:05.099Z,36.58
2016-08-18T12:47:05.093Z,36.54
2016-08-18T12:48:05.814Z,36.58
2016-08-18T12:49:06.015Z,36.3
2016-08-18T12:50:05.112Z,36.3
2016-08-18T12:51:05.121Z,36.24
2016-08-18T12:52:05.833Z,36.38
2016-08-18T12:53:06.549Z,36.45
2016-08-18T12:54:05.136Z,36.56
2016-08-18T12:55:05.874Z,36.58
2016-08-18T12:56:05.863Z,36.58
2016-08-18T12:57:05.868Z,36.63
2016-08-18T12:58:05.163Z,36.63
2016-08-18T12:59:05.169Z,36.75
2016-08-18T13:00:05.190Z,36.75
2016-08-18T13:01:05.898Z,36.7
2016-08-18T13:02:05.905Z,36.57
2016-08-18T13:03:06.612Z,36.65
2016-08-18T13:04:05.920Z,36.57
2016-08-18T13:05:05.917Z,36.56
2016-08-18T13:06:05.927Z,36.46
2016-08-18T13:07:05.937Z,36.43
2016-08-18T13:08:05.942Z,36.45
2016-08-18T13:09:05.945Z,36.6
2016-08-18T13:10:05.950Z,36.65
2016-08-18T13:11:05.253Z,36.67
2016-08-18T13:12:05.264Z,36.76
2016-08-18T13:13:05.970Z,36.79
2016-08-18T13:14:05.977Z,36.87
2016-08-18T13:15:06.689Z,36.72
2016-08-18T13:16:05.989Z,36.76
2016-08-18T13:17:05.997Z,36.76
2016-08-18T13:18:06.001Z,36.79
2016-08-18T13:19:06.003Z,36.83
2016-08-18T13:20:05.307Z,36.86
2016-08-18T13:21:05.317Z,36.75
2016-08-18T13:22:05.321Z,36.68
2016-08-18T13:23:06.032Z,36.65
2016-08-18T13:24:06.034Z,36.48
2016-08-18T13:25:05.333Z,36.24
2016-08-18T13:26:06.045Z,36.27
2016-08-18T13:27:05.345Z,36.26
2016-08-18T13:28:05.352Z,36.39
2016-08-18T13:29:06.768Z,36.38
2016-08-18T13:30:06.063Z,36.31
2016-08-18T13:31:06.083Z,36.27
2016-08-18T13:32:06.078Z,36.36
2016-08-18T13:33:06.794Z,36.43
2016-08-18T13:34:06.098Z,36.48
2016-08-18T13:35:06.094Z,36.29
2016-08-18T13:36:05.400Z,36.29
2016-08-18T13:37:06.818Z,36.01
2016-08-18T13:38:06.114Z,36.03
2016-08-18T13:39:06.122Z,36.03
2016-08-18T13:40:06.122Z,36.23
2016-08-18T13:41:05.435Z,36.42
2016-08-18T13:42:05.431Z,36.45
2016-08-18T13:43:06.143Z,36.46
2016-08-18T13:44:06.147Z,36.46
2016-08-18T13:45:05.450Z,36.46
2016-08-18T13:46:06.160Z,36.39
2016-08-18T13:47:06.162Z,36.39
2016-08-18T13:48:06.181Z,36.31
2016-08-18T13:49:06.173Z,36.17
2016-08-18T13:50:06.179Z,35.88
2016-08-18T13:51:06.186Z,35.99
2016-08-18T13:52:05.486Z,36.03
2016-08-18T13:53:06.203Z,35.86
2016-08-18T13:54:06.908Z,35.79
2016-08-18T13:55:05.502Z,35.93
2016-08-18T13:56:05.502Z,35.89
2016-08-18T13:57:06.219Z,35.73
2016-08-18T13:58:06.221Z,35.76
2016-08-18T13:59:06.940Z,35.82
2016-08-18T14:00:06.233Z,35.91
2016-08-18T14:01:06.239Z,35.99
2016-08-18T14:02:06.243Z,35.91
2016-08-18T14:03:06.266Z,35.76
2016-08-18T14:04:06.260Z,35.69
2016-08-18T14:05:06.262Z,35.69
2016-08-18T14:06:05.555Z,35.64
2016-08-18T14:07:05.567Z,35.66
2016-08-18T14:08:05.577Z,35.64
2016-08-18T14:09:05.577Z,35.64
2016-08-18T14:10:07.003Z,35.69
2016-08-18T14:11:07.008Z,35.51
2016-08-18T14:12:07.028Z,35.33
2016-08-18T14:13:06.305Z,35.25
2016-08-18T14:14:06.317Z,35.47
2016-08-18T14:15:07.022Z,35.32